createdAt,value
2019-04-12T00:01:03.553Z,2.17
2019-04-12T00:02:10.947Z,2.62
2019-04-12T00:03:14.874Z,2.12
2019-04-12T00:04:18.439Z,2.40
2019-04-12T00:05:22.010Z,2.02
2019-04-12T00:06:25.572Z,2.50
2019-04-12T00:07:32.614Z,2.50
2019-04-12T00:08:34.375Z,2.62
2019-04-12T00:09:37.940Z,2.42
2019-04-12T00:10:41.503Z,2.40
2019-04-12T00:11:45.095Z,2.37
2019-04-12T00:12:48.695Z,2.20
2019-04-12T00:13:52.262Z,2.42
2019-04-12T00:14:55.823Z,2.95
2019-04-12T00:15:59.387Z,2.27
2019-04-12T00:17:02.954Z,2.17
2019-04-12T00:18:06.546Z,2.72
2019-04-12T00:19:13.503Z,2.35
2019-04-12T00:20:15.428Z,2.95
2019-04-12T00:21:18.987Z,2.60
2019-04-12T00:22:22.548Z,2.80
2019-04-12T00:23:26.111Z,2.20
2019-04-12T00:24:34.641Z,2.52
2019-04-12T00:25:34.928Z,2.75
2019-04-12T00:26:38.495Z,2.85
2019-04-12T00:27:42.070Z,2.50
2019-04-12T00:28:49.843Z,2.83
2019-04-12T00:29:51.664Z,2.65
2019-04-12T00:30:55.863Z,2.60
2019-04-12T00:31:59.451Z,2.42
2019-04-12T00:33:03.014Z,2.40
2019-04-12T00:34:06.571Z,2.40
2019-04-12T00:35:10.246Z,2.27
2019-04-12T00:36:13.807Z,2.20
2019-04-12T00:37:17.379Z,2.15
2019-04-12T00:38:20.943Z,2.67
2019-04-12T00:39:27.003Z,2.12
2019-04-12T00:40:31.488Z,2.30
2019-04-12T00:41:34.975Z,2.40
2019-04-12T00:42:38.543Z,2.40
2019-04-12T00:43:42.107Z,2.00
2019-04-12T00:44:45.720Z,2.45
2019-04-12T00:45:49.288Z,2.27
2019-04-12T00:46:54.483Z,2.37
2019-04-12T00:47:58.116Z,2.77
2019-04-12T00:49:01.677Z,2.60
2019-04-12T00:50:06.133Z,2.95
2019-04-12T00:51:11.956Z,2.80
2019-04-12T00:52:15.172Z,2.62
2019-04-12T00:53:19.356Z,2.40
2019-04-12T00:54:22.915Z,2.30
2019-04-12T00:55:26.511Z,2.60
2019-04-12T00:56:30.079Z,2.27
2019-04-12T00:57:33.647Z,2.60
2019-04-12T00:58:37.211Z,2.42
2019-04-12T00:59:40.770Z,3.47
2019-04-12T01:01:01.367Z,2.60
2019-04-12T01:02:06.629Z,2.75
2019-04-12T01:03:10.198Z,2.70
2019-04-12T01:04:16.172Z,2.80
2019-04-12T01:05:27.979Z,2.45
2019-04-12T01:06:31.591Z,2.45
2019-04-12T01:07:35.207Z,2.72
2019-04-12T01:08:38.764Z,2.50
2019-04-12T01:09:42.391Z,2.72
2019-04-12T01:10:47.594Z,2.70
2019-04-12T01:11:54.973Z,2.40
2019-04-12T01:12:57.342Z,1.90
2019-04-12T01:14:01.507Z,2.42
2019-04-12T01:15:06.509Z,2.22
2019-04-12T01:16:10.070Z,2.55
2019-04-12T01:17:13.640Z,2.40
2019-04-12T01:18:17.243Z,2.65
2019-04-12T01:19:20.931Z,2.40
2019-04-12T01:20:24.566Z,2.75
2019-04-12T01:21:28.199Z,2.80
2019-04-12T01:22:36.141Z,2.75
2019-04-12T01:23:41.381Z,2.45
2019-04-12T01:24:44.335Z,2.83
2019-04-12T01:25:47.926Z,2.50
2019-04-12T01:26:51.466Z,2.20
2019-04-12T01:27:55.067Z,2.80
2019-04-12T01:28:58.631Z,2.80
2019-04-12T01:30:02.196Z,3.10
2019-04-12T01:31:05.750Z,2.15
2019-04-12T01:32:09.343Z,2.60
2019-04-12T01:33:14.840Z,2.55
2019-04-12T01:34:18.152Z,2.70
2019-04-12T01:35:21.820Z,2.55
2019-04-12T01:36:25.343Z,2.25
2019-04-12T01:37:28.903Z,2.30
2019-04-12T01:38:32.500Z,2.87
2019-04-12T01:39:36.066Z,2.60
2019-04-12T01:40:39.680Z,2.30
2019-04-12T01:41:43.225Z,2.72
2019-04-12T01:42:46.784Z,2.75
2019-04-12T01:43:50.379Z,2.60
2019-04-12T01:44:53.955Z,2.50
2019-04-12T01:45:57.520Z,2.62
2019-04-12T01:47:01.084Z,2.90
2019-04-12T01:48:04.651Z,2.60
2019-04-12T01:49:08.238Z,2.50
2019-04-12T01:50:13.411Z,2.40
2019-04-12T01:51:16.978Z,2.65
2019-04-12T01:52:20.544Z,2.90
2019-04-12T01:53:24.100Z,2.45
2019-04-12T01:54:27.694Z,2.60
2019-04-12T01:55:31.282Z,2.42
2019-04-12T01:56:34.826Z,2.60
2019-04-12T01:57:38.387Z,2.72
2019-04-12T01:58:41.979Z,2.50
2019-04-12T01:59:45.538Z,3.10
2019-04-12T02:00:49.371Z,2.37
2019-04-12T02:01:52.938Z,2.50
2019-04-12T02:02:56.490Z,2.55
2019-04-12T02:04:00.088Z,2.37
2019-04-12T02:05:03.846Z,2.60
2019-04-12T02:06:07.411Z,2.87
2019-04-12T02:07:10.974Z,3.25
2019-04-12T02:08:14.534Z,2.50
2019-04-12T02:09:18.124Z,2.40
2019-04-12T02:10:21.719Z,2.65
2019-04-12T02:11:25.279Z,2.52
2019-04-12T02:12:28.970Z,3.15
2019-04-12T02:13:32.535Z,2.70
2019-04-12T02:14:36.211Z,2.50
2019-04-12T02:15:39.763Z,2.52
2019-04-12T02:16:43.351Z,2.50
2019-04-12T02:17:46.946Z,2.58
2019-04-12T02:18:50.511Z,2.60
2019-04-12T02:19:54.112Z,2.30
2019-04-12T02:20:57.779Z,2.98
2019-04-12T02:22:01.359Z,2.65
2019-04-12T02:23:04.927Z,2.45
2019-04-12T02:24:08.487Z,2.52
2019-04-12T02:25:20.450Z,3.02
2019-04-12T02:26:17.303Z,3.00
2019-04-12T02:27:20.863Z,2.80
2019-04-12T02:28:26.067Z,2.58
2019-04-12T02:29:29.627Z,2.95
2019-04-12T02:30:34.762Z,2.67
2019-04-12T02:31:43.195Z,2.90
2019-04-12T02:32:54.167Z,3.00
2019-04-12T02:33:57.722Z,3.12
2019-04-12T02:35:02.924Z,3.00
2019-04-12T02:36:08.161Z,3.10
2019-04-12T02:37:11.731Z,2.77
2019-04-12T02:38:15.293Z,2.87
2019-04-12T02:39:18.858Z,3.25
2019-04-12T02:40:22.552Z,3.22
2019-04-12T02:41:26.575Z,3.55
2019-04-12T02:42:30.621Z,3.20
2019-04-12T02:43:34.184Z,3.25
2019-04-12T02:44:39.632Z,3.10
2019-04-12T02:45:46.473Z,3.42
2019-04-12T02:46:53.044Z,3.00
2019-04-12T02:47:59.243Z,3.02
2019-04-12T02:49:06.021Z,3.20
2019-04-12T02:50:11.663Z,3.37
2019-04-12T02:51:25.843Z,3.30
2019-04-12T02:52:49.203Z,2.98
2019-04-12T02:54:00.715Z,2.90
2019-04-12T02:55:12.996Z,2.95
2019-04-12T02:56:36.742Z,3.50
2019-04-12T02:57:54.383Z,3.40
2019-04-12T02:59:01.116Z,3.00
2019-04-12T03:00:07.994Z,3.40
2019-04-12T03:01:22.417Z,3.75
2019-04-12T03:02:27.383Z,3.50
2019-04-12T03:03:31.122Z,4.00
2019-04-12T03:04:35.166Z,3.65
2019-04-12T03:05:38.791Z,3.17
2019-04-12T03:06:43.087Z,3.52
2019-04-12T03:07:46.647Z,3.50
2019-04-12T03:08:50.275Z,4.37
2019-04-12T03:09:56.863Z,4.22
2019-04-12T03:11:01.660Z,3.87
2019-04-12T03:12:08.634Z,3.45
2019-04-12T03:13:12.868Z,3.75
2019-04-12T03:14:16.615Z,4.58
2019-04-12T03:15:20.214Z,4.40
2019-04-12T03:16:24.718Z,5.10
2019-04-12T03:17:28.915Z,4.85
2019-04-12T03:18:33.343Z,4.40
2019-04-12T03:19:37.378Z,4.80
2019-04-12T03:20:41.916Z,5.00
2019-04-12T03:21:45.716Z,4.65
2019-04-12T03:22:50.229Z,5.28
2019-04-12T03:23:53.859Z,5.37
2019-04-12T03:24:57.827Z,5.30
2019-04-12T03:26:01.550Z,6.10
2019-04-12T03:27:05.584Z,5.67
2019-04-12T03:28:09.485Z,5.22
2019-04-12T03:29:13.420Z,5.33
2019-04-12T03:30:17.084Z,5.00
2019-04-12T03:31:20.786Z,6.95
2019-04-12T03:32:24.417Z,14.60
2019-04-12T03:33:28.509Z,10.18
2019-04-12T03:34:32.844Z,18.35
2019-04-12T03:35:36.480Z,14.23
2019-04-12T03:36:40.780Z,6.65
2019-04-12T03:37:44.480Z,4.70
2019-04-12T03:38:48.186Z,5.28
2019-04-12T03:39:51.917Z,4.15
2019-04-12T03:40:55.615Z,5.00
2019-04-12T03:41:59.255Z,7.47
2019-04-12T03:43:02.924Z,5.20
2019-04-12T03:44:06.653Z,5.17
2019-04-12T03:45:10.551Z,4.20
2019-04-12T03:46:14.480Z,4.70
2019-04-12T03:47:18.452Z,4.28
2019-04-12T03:48:22.076Z,4.92
2019-04-12T03:49:25.683Z,6.00
2019-04-12T03:50:29.572Z,6.58
2019-04-12T03:51:33.476Z,6.12
2019-04-12T03:52:37.208Z,5.75
2019-04-12T03:53:40.872Z,5.35
2019-04-12T03:54:44.617Z,5.60
2019-04-12T03:55:48.911Z,5.30
2019-04-12T03:56:53.021Z,5.67
2019-04-12T03:57:57.158Z,7.55
2019-04-12T03:59:17.981Z,12.25
2019-04-12T04:00:24.992Z,7.08
2019-04-12T04:01:28.792Z,6.28
2019-04-12T04:02:32.592Z,6.20
2019-04-12T04:03:36.158Z,5.60
2019-04-12T04:04:40.025Z,5.55
2019-04-12T04:05:44.513Z,5.80
2019-04-12T04:06:48.447Z,5.95
2019-04-12T04:07:52.156Z,5.72
2019-04-12T04:08:55.752Z,6.45
2019-04-12T04:09:59.390Z,6.60
2019-04-12T04:11:03.344Z,6.65
2019-04-12T04:12:07.127Z,7.03
2019-04-12T04:13:10.703Z,6.53
2019-04-12T04:14:15.063Z,6.90
2019-04-12T04:15:19.666Z,7.12
2019-04-12T04:16:23.219Z,7.35
2019-04-12T04:17:44.875Z,7.33
2019-04-12T04:18:49.302Z,8.13
2019-04-12T04:20:11.406Z,7.22
2019-04-12T04:21:19.393Z,7.22
2019-04-12T04:22:23.129Z,7.80
2019-04-12T04:23:44.775Z,7.10
2019-04-12T04:24:52.997Z,8.28
2019-04-12T04:26:22.519Z,8.08
2019-04-12T04:27:35.465Z,7.85
2019-04-12T04:28:43.654Z,7.70
2019-04-12T04:29:55.102Z,8.23
2019-04-12T04:31:06.127Z,8.63
2019-04-12T04:32:14.456Z,9.05
2019-04-12T04:33:18.159Z,7.90
2019-04-12T04:34:22.163Z,8.30
2019-04-12T04:35:25.866Z,8.70
2019-04-12T04:36:29.579Z,9.23
2019-04-12T04:37:33.763Z,9.13
2019-04-12T04:38:37.466Z,9.60
2019-04-12T04:39:41.822Z,8.98
2019-04-12T04:40:46.924Z,9.95
2019-04-12T04:41:50.866Z,9.30
2019-04-12T04:42:54.498Z,9.43
2019-04-12T04:43:58.201Z,9.88
2019-04-12T04:45:01.882Z,9.58
2019-04-12T04:46:05.439Z,9.25
2019-04-12T04:47:09.593Z,10.30
2019-04-12T04:48:13.432Z,10.85
2019-04-12T04:49:17.511Z,10.85
2019-04-12T04:50:21.107Z,10.48
2019-04-12T04:51:24.816Z,9.90
2019-04-12T04:52:28.760Z,10.18
2019-04-12T04:53:32.563Z,10.93
2019-04-12T04:54:36.515Z,10.32
2019-04-12T04:55:40.523Z,10.88
2019-04-12T04:56:44.331Z,11.10
2019-04-12T04:57:47.936Z,12.30
2019-04-12T04:58:51.507Z,10.50
2019-04-12T04:59:55.188Z,12.10
2019-04-12T05:00:59.220Z,11.33
2019-04-12T05:02:03.267Z,10.48
2019-04-12T05:03:08.431Z,10.95
2019-04-12T05:04:12.543Z,12.53
2019-04-12T05:05:16.159Z,12.10
2019-04-12T05:06:20.169Z,11.78
2019-04-12T05:07:23.737Z,13.00
2019-04-12T05:08:27.443Z,10.70
2019-04-12T05:09:31.157Z,12.00
2019-04-12T05:10:34.859Z,12.33
2019-04-12T05:11:38.503Z,11.83
2019-04-12T05:12:42.210Z,12.47
2019-04-12T05:13:45.923Z,11.43
2019-04-12T05:14:49.598Z,12.07
2019-04-12T05:15:54.005Z,11.88
2019-04-12T05:16:57.647Z,13.38
2019-04-12T05:18:01.703Z,12.88
2019-04-12T05:19:05.348Z,12.40
2019-04-12T05:20:09.083Z,13.65
2019-04-12T05:21:13.189Z,12.65
2019-04-12T05:22:16.990Z,13.05
2019-04-12T05:23:20.823Z,12.73
2019-04-12T05:24:24.640Z,12.40
2019-04-12T05:25:28.335Z,14.15
2019-04-12T05:26:31.908Z,13.40
2019-04-12T05:27:35.806Z,12.75
2019-04-12T05:28:39.423Z,13.15
2019-04-12T05:29:43.327Z,13.68
2019-04-12T05:30:46.972Z,13.98
2019-04-12T05:31:50.975Z,14.00
2019-04-12T05:32:54.549Z,12.93
2019-04-12T05:33:58.415Z,12.18
2019-04-12T05:35:02.551Z,13.35
2019-04-12T05:36:06.654Z,12.68
2019-04-12T05:37:10.791Z,13.32
2019-04-12T05:38:14.435Z,13.03
2019-04-12T05:39:18.099Z,12.98
2019-04-12T05:40:21.665Z,13.18
2019-04-12T05:41:25.350Z,13.18
2019-04-12T05:42:28.937Z,13.10
2019-04-12T05:43:34.134Z,12.45
2019-04-12T05:44:37.743Z,13.50
2019-04-12T05:45:49.062Z,13.50
2019-04-12T05:47:03.102Z,12.68
2019-04-12T05:48:14.220Z,14.23
2019-04-12T05:49:22.451Z,14.13
2019-04-12T05:50:30.627Z,14.18
2019-04-12T05:51:34.272Z,13.50
2019-04-12T05:52:37.927Z,13.98
2019-04-12T05:53:41.563Z,13.25
2019-04-12T05:54:45.122Z,12.80
2019-04-12T05:55:50.361Z,12.78
2019-04-12T05:56:57.240Z,12.30
2019-04-12T05:58:00.783Z,12.25
2019-04-12T05:59:24.087Z,18.23
2019-04-12T06:00:29.299Z,12.68
2019-04-12T06:01:34.535Z,10.78
2019-04-12T06:02:42.348Z,12.70
2019-04-12T06:03:45.982Z,13.03
2019-04-12T06:04:49.660Z,12.33
2019-04-12T06:05:53.232Z,13.38
2019-04-12T06:06:58.572Z,13.50
2019-04-12T06:08:02.275Z,12.93
2019-04-12T06:09:07.983Z,11.40
2019-04-12T06:10:13.027Z,11.63
2019-04-12T06:11:16.590Z,11.40
2019-04-12T06:12:21.031Z,10.28
2019-04-12T06:13:24.805Z,11.75
2019-04-12T06:14:28.440Z,11.40
2019-04-12T06:15:32.175Z,11.68
2019-04-12T06:16:36.303Z,11.97
2019-04-12T06:17:41.112Z,12.58
2019-04-12T06:18:45.540Z,11.50
2019-04-12T06:19:50.048Z,11.97
2019-04-12T06:20:58.274Z,12.00
2019-04-12T06:22:12.335Z,11.57
2019-04-12T06:23:15.945Z,11.60
2019-04-12T06:24:19.532Z,11.40
2019-04-12T06:25:27.313Z,12.65
2019-04-12T06:26:38.639Z,12.60
2019-04-12T06:27:43.843Z,12.58
2019-04-12T06:28:47.416Z,11.60
2019-04-12T06:29:51.031Z,11.65
2019-04-12T06:30:56.236Z,11.60
2019-04-12T06:31:59.911Z,11.28
2019-04-12T06:33:03.622Z,10.32
2019-04-12T06:34:07.247Z,10.45
2019-04-12T06:35:10.915Z,9.93
2019-04-12T06:36:14.492Z,9.95
2019-04-12T06:37:18.121Z,10.63
2019-04-12T06:38:21.803Z,10.48
2019-04-12T06:39:25.372Z,10.20
2019-04-12T06:40:29.066Z,9.98
2019-04-12T06:41:32.626Z,10.50
2019-04-12T06:42:36.194Z,11.48
2019-04-12T06:43:39.872Z,10.40
2019-04-12T06:44:43.494Z,9.80
2019-04-12T06:45:47.099Z,9.48
2019-04-12T06:46:50.663Z,9.60
2019-04-12T06:47:54.231Z,9.28
2019-04-12T06:48:57.870Z,8.65
2019-04-12T06:50:01.573Z,9.78
2019-04-12T06:51:09.988Z,9.50
2019-04-12T06:52:13.546Z,10.40
2019-04-12T06:53:17.780Z,9.15
2019-04-12T06:54:21.348Z,9.10
2019-04-12T06:55:29.452Z,9.65
2019-04-12T06:56:46.427Z,9.93
2019-04-12T06:57:50.067Z,10.55
2019-04-12T06:58:53.632Z,9.93
2019-04-12T07:00:14.830Z,9.38
2019-04-12T07:01:29.107Z,9.48
2019-04-12T07:02:35.371Z,9.78
2019-04-12T07:03:56.299Z,8.35
2019-04-12T07:04:53.482Z,8.93
2019-04-12T07:05:57.056Z,8.78
2019-04-12T07:07:01.396Z,9.90
2019-04-12T07:08:05.062Z,9.00
2019-04-12T07:09:08.705Z,8.60
2019-04-12T07:10:12.272Z,9.48
2019-04-12T07:11:15.830Z,8.95
2019-04-12T07:12:19.396Z,9.28
2019-04-12T07:13:23.095Z,8.68
2019-04-12T07:14:26.738Z,9.00
2019-04-12T07:15:30.549Z,7.72
2019-04-12T07:16:34.084Z,9.03
2019-04-12T07:17:37.652Z,7.65
2019-04-12T07:18:41.513Z,7.75
2019-04-12T07:19:45.531Z,7.95
2019-04-12T07:20:49.133Z,7.25
2019-04-12T07:21:52.766Z,7.55
2019-04-12T07:22:59.029Z,7.90
2019-04-12T07:24:01.551Z,7.92
2019-04-12T07:25:06.091Z,8.23
2019-04-12T07:26:09.656Z,7.85
2019-04-12T07:27:13.223Z,7.40
2019-04-12T07:28:17.923Z,8.20
2019-04-12T07:29:21.582Z,7.28
2019-04-12T07:30:25.181Z,8.13
2019-04-12T07:31:28.747Z,7.20
2019-04-12T07:32:32.314Z,7.97
2019-04-12T07:33:35.882Z,7.35
2019-04-12T07:34:39.444Z,7.20
2019-04-12T07:35:43.113Z,8.03
2019-04-12T07:36:46.677Z,7.40
2019-04-12T07:37:50.238Z,7.12
2019-04-12T07:38:53.963Z,7.80
2019-04-12T07:39:57.587Z,7.65
2019-04-12T07:41:01.187Z,8.38
2019-04-12T07:42:04.883Z,7.40
2019-04-12T07:43:08.455Z,7.25
2019-04-12T07:44:12.022Z,6.83
2019-04-12T07:45:15.746Z,7.50
2019-04-12T07:46:19.327Z,6.97
2019-04-12T07:47:22.887Z,6.60
2019-04-12T07:48:26.452Z,7.22
2019-04-12T07:49:30.017Z,7.25
2019-04-12T07:50:35.223Z,7.65
2019-04-12T07:51:43.175Z,7.60
2019-04-12T07:52:46.752Z,6.87
2019-04-12T07:54:03.708Z,7.42
2019-04-12T07:55:20.730Z,6.55
2019-04-12T07:56:25.300Z,7.28
2019-04-12T07:57:30.499Z,6.25
2019-04-12T07:58:44.486Z,6.67
2019-04-12T07:59:48.046Z,7.45
2019-04-12T08:01:02.294Z,6.30
2019-04-12T08:02:13.817Z,7.00
2019-04-12T08:03:27.599Z,6.17
2019-04-12T08:04:48.194Z,6.35
2019-04-12T08:05:53.404Z,6.17
2019-04-12T08:06:58.652Z,5.72
2019-04-12T08:08:03.480Z,6.60
2019-04-12T08:09:07.619Z,6.28
2019-04-12T08:10:11.801Z,5.72
2019-04-12T08:11:15.359Z,6.30
2019-04-12T08:12:19.002Z,6.25
2019-04-12T08:13:22.567Z,5.95
2019-04-12T08:14:26.182Z,5.78
2019-04-12T08:15:29.918Z,6.15
2019-04-12T08:16:33.466Z,6.35
2019-04-12T08:17:37.030Z,6.45
2019-04-12T08:18:40.635Z,5.80
2019-04-12T08:19:44.199Z,6.05
2019-04-12T08:20:47.764Z,6.25
2019-04-12T08:21:51.395Z,6.12
2019-04-12T08:22:54.959Z,6.60
2019-04-12T08:23:58.569Z,7.00
2019-04-12T08:25:04.701Z,6.33
2019-04-12T08:26:07.715Z,6.05
2019-04-12T08:27:11.302Z,5.80
2019-04-12T08:28:14.873Z,6.15
2019-04-12T08:29:18.490Z,5.65
2019-04-12T08:30:22.193Z,6.33
2019-04-12T08:31:25.760Z,6.53
2019-04-12T08:32:29.327Z,6.30
2019-04-12T08:33:32.922Z,6.17
2019-04-12T08:34:36.478Z,6.03
2019-04-12T08:35:40.106Z,6.20
2019-04-12T08:36:43.666Z,6.15
2019-04-12T08:37:47.222Z,6.45
2019-04-12T08:38:50.788Z,6.10
2019-04-12T08:39:54.350Z,5.90
2019-04-12T08:40:57.956Z,6.53
2019-04-12T08:42:01.531Z,6.12
2019-04-12T08:43:05.095Z,6.55
2019-04-12T08:44:08.716Z,6.08
2019-04-12T08:45:12.467Z,7.40
2019-04-12T08:46:16.047Z,6.60
2019-04-12T08:47:19.630Z,6.70
2019-04-12T08:48:23.244Z,6.33
2019-04-12T08:49:26.819Z,6.30
2019-04-12T08:50:30.380Z,6.65
2019-04-12T08:51:33.926Z,6.47
2019-04-12T08:52:37.538Z,6.10
2019-04-12T08:53:41.142Z,5.50
2019-04-12T08:54:45.078Z,6.20
2019-04-12T08:55:48.644Z,5.00
2019-04-12T08:56:52.211Z,5.33
2019-04-12T08:57:55.832Z,6.00
2019-04-12T08:58:59.395Z,5.92
2019-04-12T09:00:04.065Z,4.62
2019-04-12T09:01:07.703Z,5.00
2019-04-12T09:02:11.256Z,4.75
2019-04-12T09:03:14.935Z,5.50
2019-04-12T09:04:18.498Z,4.95
2019-04-12T09:05:31.929Z,5.50
2019-04-12T09:06:27.351Z,5.72
2019-04-12T09:07:30.966Z,5.00
2019-04-12T09:08:36.150Z,4.60
2019-04-12T09:09:39.771Z,5.70
2019-04-12T09:10:43.284Z,5.30
2019-04-12T09:11:46.829Z,5.05
2019-04-12T09:12:50.475Z,4.12
2019-04-12T09:13:54.006Z,4.58
2019-04-12T09:14:57.645Z,4.75
2019-04-12T09:16:01.311Z,4.15
2019-04-12T09:17:04.893Z,4.35
2019-04-12T09:18:08.571Z,4.00
2019-04-12T09:19:30.242Z,3.70
2019-04-12T09:20:35.406Z,3.75
2019-04-12T09:21:40.623Z,3.30
2019-04-12T09:22:51.411Z,3.92
2019-04-12T09:24:08.582Z,4.20
2019-04-12T09:25:26.405Z,3.72
2019-04-12T09:26:30.067Z,3.98
2019-04-12T09:27:33.799Z,3.67
2019-04-12T09:28:37.402Z,4.17
2019-04-12T09:29:41.022Z,3.70
2019-04-12T09:30:44.984Z,3.50
2019-04-12T09:31:48.512Z,4.30
2019-04-12T09:32:52.119Z,3.83
2019-04-12T09:33:55.720Z,4.12
2019-04-12T09:34:59.243Z,4.03
2019-04-12T09:36:02.809Z,4.40
2019-04-12T09:37:06.764Z,3.77
2019-04-12T09:38:10.358Z,3.47
2019-04-12T09:39:13.975Z,4.22
2019-04-12T09:40:17.610Z,4.17
2019-04-12T09:41:21.173Z,4.67
2019-04-12T09:42:24.730Z,4.37
2019-04-12T09:43:28.294Z,4.35
2019-04-12T09:44:31.886Z,4.30
2019-04-12T09:45:35.460Z,4.78
2019-04-12T09:46:39.024Z,3.98
2019-04-12T09:47:42.625Z,4.70
2019-04-12T09:48:46.228Z,4.62
2019-04-12T09:49:49.791Z,4.10
2019-04-12T09:50:53.352Z,4.05
2019-04-12T09:51:56.915Z,4.15
2019-04-12T09:53:00.518Z,4.12
2019-04-12T09:54:04.134Z,4.25
2019-04-12T09:55:07.872Z,4.42
2019-04-12T09:56:11.443Z,3.70
2019-04-12T09:57:15.043Z,4.40
2019-04-12T09:58:18.606Z,4.22
2019-04-12T09:59:22.179Z,3.17
2019-04-12T10:00:25.751Z,3.98
2019-04-12T10:01:32.177Z,3.35
2019-04-12T10:02:34.555Z,3.55
2019-04-12T10:03:38.116Z,3.50
2019-04-12T10:04:41.680Z,3.50
2019-04-12T10:05:45.242Z,3.60
2019-04-12T10:06:48.831Z,3.65
2019-04-12T10:07:52.427Z,3.87
2019-04-12T10:08:55.983Z,3.67
2019-04-12T10:09:59.551Z,3.85
2019-04-12T10:11:03.119Z,4.55
2019-04-12T10:12:06.674Z,4.70
2019-04-12T10:13:10.276Z,3.87
2019-04-12T10:14:14.661Z,3.95
2019-04-12T10:15:19.813Z,4.75
2019-04-12T10:16:23.418Z,4.60
2019-04-12T10:17:27.051Z,4.22
2019-04-12T10:18:30.611Z,4.33
2019-04-12T10:19:34.171Z,4.22
2019-04-12T10:20:37.733Z,4.70
2019-04-12T10:21:41.343Z,5.15
2019-04-12T10:22:44.907Z,4.33
2019-04-12T10:23:48.471Z,4.50
2019-04-12T10:24:52.030Z,5.03
2019-04-12T10:25:55.588Z,4.60
2019-04-12T10:26:59.187Z,4.42
2019-04-12T10:28:02.759Z,4.40
2019-04-12T10:29:06.319Z,4.55
2019-04-12T10:30:10.890Z,4.40
2019-04-12T10:31:14.521Z,5.12
2019-04-12T10:32:18.115Z,4.33
2019-04-12T10:33:21.686Z,4.55
2019-04-12T10:34:25.560Z,4.70
2019-04-12T10:35:29.622Z,4.70
2019-04-12T10:36:33.187Z,4.30
2019-04-12T10:37:36.817Z,4.37
2019-04-12T10:38:42.020Z,4.22
2019-04-12T10:39:45.602Z,4.10
2019-04-12T10:40:49.210Z,4.75
2019-04-12T10:41:52.771Z,4.20
2019-04-12T10:42:56.390Z,4.55
2019-04-12T10:44:01.587Z,4.15
2019-04-12T10:45:09.126Z,4.20
2019-04-12T10:46:17.066Z,4.30
2019-04-12T10:47:25.254Z,4.37
2019-04-12T10:48:36.456Z,3.83
2019-04-12T10:49:41.657Z,4.35
2019-04-12T10:51:03.387Z,4.25
2019-04-12T10:52:14.472Z,4.10
2019-04-12T10:53:28.519Z,4.20
2019-04-12T10:54:50.110Z,5.00
2019-04-12T10:55:55.308Z,4.75
2019-04-12T10:56:58.871Z,4.90
2019-04-12T10:58:02.436Z,4.50
2019-04-12T10:59:06.673Z,3.80
2019-04-12T11:00:11.187Z,4.72
2019-04-12T11:01:14.755Z,3.83
2019-04-12T11:02:18.320Z,4.10
2019-04-12T11:03:21.884Z,4.30
2019-04-12T11:04:25.451Z,3.35
2019-04-12T11:05:29.051Z,4.05
2019-04-12T11:06:32.659Z,4.53
2019-04-12T11:07:36.228Z,3.90
2019-04-12T11:08:39.786Z,4.15
2019-04-12T11:09:43.352Z,4.60
2019-04-12T11:10:46.910Z,4.50
2019-04-12T11:11:50.506Z,3.60
2019-04-12T11:12:54.071Z,4.40
2019-04-12T11:13:57.639Z,4.20
2019-04-12T11:15:01.210Z,3.77
2019-04-12T11:16:04.793Z,4.50
2019-04-12T11:17:08.379Z,4.15
2019-04-12T11:18:11.954Z,3.75
2019-04-12T11:19:15.516Z,3.58
2019-04-12T11:20:19.095Z,4.30
2019-04-12T11:21:22.647Z,3.60
2019-04-12T11:22:26.240Z,4.17
2019-04-12T11:23:29.807Z,4.12
2019-04-12T11:24:33.398Z,4.05
2019-04-12T11:25:36.963Z,4.03
2019-04-12T11:26:40.527Z,3.62
2019-04-12T11:27:44.088Z,4.10
2019-04-12T11:28:47.653Z,4.65
2019-04-12T11:29:51.253Z,5.12
2019-04-12T11:30:54.811Z,4.85
2019-04-12T11:31:58.367Z,4.45
2019-04-12T11:33:01.936Z,4.35
2019-04-12T11:34:05.498Z,4.53
2019-04-12T11:35:10.479Z,5.47
2019-04-12T11:36:14.162Z,4.37
2019-04-12T11:37:17.741Z,5.00
2019-04-12T11:38:21.303Z,4.85
2019-04-12T11:39:24.865Z,4.47
2019-04-12T11:40:28.471Z,4.60
2019-04-12T11:41:32.031Z,4.58
2019-04-12T11:42:35.711Z,5.03
2019-04-12T11:43:39.279Z,5.40
2019-04-12T11:44:42.848Z,5.65
2019-04-12T11:45:46.532Z,4.12
2019-04-12T11:46:50.112Z,4.78
2019-04-12T11:47:53.715Z,4.97
2019-04-12T11:48:57.280Z,5.12
2019-04-12T11:50:00.880Z,4.62
2019-04-12T11:51:04.445Z,4.85
2019-04-12T11:52:07.999Z,5.00
2019-04-12T11:53:11.635Z,5.20
2019-04-12T11:54:15.266Z,4.90
2019-04-12T11:55:18.890Z,5.00
2019-04-12T11:56:22.451Z,4.65
2019-04-12T11:57:26.017Z,4.08
2019-04-12T11:58:46.923Z,4.30
2019-04-12T11:59:34.839Z,4.58
2019-04-12T12:00:49.308Z,4.25
2019-04-12T12:01:54.519Z,5.00
2019-04-12T12:03:05.916Z,6.20
2019-04-12T12:04:26.260Z,4.90
2019-04-12T12:05:49.664Z,4.90
2019-04-12T12:07:11.553Z,4.35
2019-04-12T12:08:32.670Z,4.87
2019-04-12T12:09:43.843Z,5.42
2019-04-12T12:11:03.930Z,5.53
2019-04-12T12:12:15.211Z,5.70
2019-04-12T12:13:26.563Z,6.78
2019-04-12T12:14:34.446Z,5.55
2019-04-12T12:15:57.989Z,6.22
2019-04-12T12:17:09.159Z,5.50
2019-04-12T12:18:14.368Z,6.10
2019-04-12T12:19:19.504Z,5.55
2019-04-12T12:20:23.063Z,6.10
2019-04-12T12:21:26.624Z,5.30
2019-04-12T12:22:30.219Z,6.05
2019-04-12T12:23:33.784Z,6.30
2019-04-12T12:24:37.382Z,6.12
2019-04-12T12:25:40.951Z,5.72
2019-04-12T12:26:44.793Z,5.70
2019-04-12T12:27:48.351Z,5.60
2019-04-12T12:28:51.917Z,6.10
2019-04-12T12:29:55.537Z,6.67
2019-04-12T12:30:59.347Z,5.40
2019-04-12T12:32:02.968Z,5.80
2019-04-12T12:33:06.523Z,6.15
2019-04-12T12:34:10.091Z,5.78
2019-04-12T12:35:13.738Z,6.00
2019-04-12T12:36:17.344Z,5.40
2019-04-12T12:37:20.943Z,5.70
2019-04-12T12:38:24.518Z,5.70
2019-04-12T12:39:28.080Z,5.40
2019-04-12T12:40:31.653Z,5.50
2019-04-12T12:41:35.215Z,5.67
2019-04-12T12:42:38.815Z,5.70
2019-04-12T12:43:42.395Z,5.10
2019-04-12T12:44:46.006Z,5.08
2019-04-12T12:45:49.607Z,5.45
2019-04-12T12:46:53.175Z,5.33
2019-04-12T12:47:56.774Z,6.00
2019-04-12T12:49:00.339Z,4.80
2019-04-12T12:50:05.213Z,4.83
2019-04-12T12:51:08.837Z,5.20
2019-04-12T12:52:12.465Z,5.25
2019-04-12T12:53:16.030Z,5.10
2019-04-12T12:54:19.636Z,4.90
2019-04-12T12:55:23.201Z,5.22
2019-04-12T12:56:26.765Z,4.90
2019-04-12T12:57:30.342Z,4.60
2019-04-12T12:58:33.913Z,5.15
2019-04-12T12:59:37.591Z,4.80
2019-04-12T13:00:41.200Z,4.85
2019-04-12T13:01:44.775Z,5.62
2019-04-12T13:02:48.355Z,4.72
2019-04-12T13:03:52.107Z,5.22
2019-04-12T13:04:55.687Z,5.55
2019-04-12T13:06:02.104Z,5.05
2019-04-12T13:07:04.572Z,5.15
2019-04-12T13:08:08.145Z,5.37
2019-04-12T13:09:11.922Z,5.17
2019-04-12T13:10:15.496Z,6.03
2019-04-12T13:11:19.100Z,5.37
2019-04-12T13:12:22.680Z,6.62
2019-04-12T13:13:26.250Z,5.12
2019-04-12T13:14:29.836Z,5.80
2019-04-12T13:15:33.404Z,6.80
2019-04-12T13:16:37.358Z,5.42
2019-04-12T13:17:40.975Z,5.45
2019-04-12T13:18:44.551Z,6.70
2019-04-12T13:19:48.121Z,7.17
2019-04-12T13:20:51.699Z,6.30
2019-04-12T13:21:55.312Z,6.35
2019-04-12T13:22:58.893Z,6.85
2019-04-12T13:24:02.457Z,7.17
2019-04-12T13:25:07.061Z,6.80
2019-04-12T13:26:10.703Z,6.62
2019-04-12T13:27:14.383Z,6.70
2019-04-12T13:28:17.943Z,8.00
2019-04-12T13:29:21.512Z,7.08
2019-04-12T13:30:42.110Z,8.65
2019-04-12T13:32:02.485Z,7.70
2019-04-12T13:33:07.736Z,5.97
2019-04-12T13:34:12.965Z,7.10
2019-04-12T13:35:18.178Z,6.42
2019-04-12T13:36:39.954Z,6.30
2019-04-12T13:37:47.903Z,6.45
2019-04-12T13:38:55.593Z,6.70
2019-04-12T13:40:00.803Z,5.70
2019-04-12T13:41:04.579Z,6.42
2019-04-12T13:42:09.837Z,6.47
2019-04-12T13:43:14.479Z,6.25
2019-04-12T13:44:18.052Z,5.92
2019-04-12T13:45:22.090Z,5.60
2019-04-12T13:46:25.655Z,5.90
2019-04-12T13:47:29.267Z,6.08
2019-04-12T13:48:32.835Z,6.33
2019-04-12T13:49:36.406Z,5.75
2019-04-12T13:50:39.981Z,6.12
2019-04-12T13:51:43.538Z,6.08
2019-04-12T13:52:47.219Z,6.05
2019-04-12T13:53:50.786Z,5.85
2019-04-12T13:54:54.425Z,5.85
2019-04-12T13:55:57.997Z,5.87
2019-04-12T13:57:01.571Z,5.53
2019-04-12T13:58:05.244Z,5.75
2019-04-12T13:59:08.821Z,6.40
2019-04-12T14:00:19.202Z,6.72
2019-04-12T14:01:21.341Z,6.95
2019-04-12T14:02:24.919Z,6.45
2019-04-12T14:03:28.517Z,6.05
2019-04-12T14:04:32.088Z,6.00
2019-04-12T14:05:35.831Z,5.35
2019-04-12T14:06:39.409Z,5.25
2019-04-12T14:07:42.986Z,5.50
2019-04-12T14:08:46.624Z,5.83
2019-04-12T14:09:50.210Z,5.70
2019-04-12T14:10:53.811Z,6.05
2019-04-12T14:11:57.391Z,6.30
2019-04-12T14:13:02.671Z,6.35
2019-04-12T14:14:06.178Z,6.30
2019-04-12T14:15:10.225Z,6.08
2019-04-12T14:16:13.806Z,5.58
2019-04-12T14:17:17.408Z,4.92
2019-04-12T14:18:20.972Z,5.20
2019-04-12T14:19:24.542Z,5.20
2019-04-12T14:20:28.122Z,5.53